createdAt,value
2022-12-05T00:10:37.957Z,102387.03
2022-12-05T00:25:40.165Z,102380.16
2022-12-05T00:40:41.998Z,102368.53
2022-12-05T00:55:44.078Z,102342.81
2022-12-05T01:10:56.907Z,102344.47
2022-12-05T01:25:58.697Z,102328.72
2022-12-05T01:41:05.918Z,102317.06
2022-12-05T01:56:09.137Z,102325.53
2022-12-05T02:11:10.993Z,102332.41
2022-12-05T02:26:38.164Z,102344.19
2022-12-05T02:42:07.820Z,102323.56
2022-12-05T02:57:11.965Z,102305.63
2022-12-05T03:12:26.201Z,102312.78
2022-12-05T03:27:43.466Z,102307.97
2022-12-05T03:42:54.991Z,102296.28
2022-12-05T03:58:06.040Z,102317.00
2022-12-05T04:13:18.058Z,102325.75
2022-12-05T04:28:33.728Z,102315.91
2022-12-05T04:43:40.844Z,102308.56
2022-12-05T04:58:44.066Z,102312.16
2022-12-05T05:13:46.111Z,102302.22
2022-12-05T05:28:49.104Z,102292.19
2022-12-05T05:43:52.057Z,102300.50
2022-12-05T05:59:03.155Z,102300.81
2022-12-05T06:14:04.983Z,102284.94
2022-12-05T06:29:06.863Z,102279.44
2022-12-05T06:44:10.304Z,102278.09
2022-12-05T06:59:12.201Z,102267.34
2022-12-05T07:14:31.231Z,102277.03
2022-12-05T07:29:35.908Z,102279.72
2022-12-05T07:44:37.735Z,102291.06
2022-12-05T07:59:39.970Z,102281.22
2022-12-05T08:14:41.806Z,102274.03
2022-12-05T08:29:43.971Z,102244.56
2022-12-05T08:44:45.758Z,102241.78
2022-12-05T08:59:47.854Z,102237.63
2022-12-05T09:14:49.831Z,102197.97
2022-12-05T09:29:51.663Z,102183.13
2022-12-05T09:45:11.588Z,102174.38
2022-12-05T10:00:17.826Z,102152.25
2022-12-05T10:15:22.723Z,102155.63
2022-12-05T10:30:28.079Z,102111.03
2022-12-05T10:46:00.905Z,102104.53
2022-12-05T11:01:15.011Z,102102.38
2022-12-05T11:16:25.844Z,102088.06
2022-12-05T11:31:30.727Z,102068.44
2022-12-05T11:46:41.500Z,102064.00
2022-12-05T12:02:15.592Z,102081.53
2022-12-05T12:17:41.554Z,102076.03
2022-12-05T12:32:53.466Z,102053.84
2022-12-05T12:48:21.642Z,102067.53
2022-12-05T13:03:27.449Z,102065.22
2022-12-05T13:18:29.403Z,102064.53
2022-12-05T13:33:35.605Z,102050.44
2022-12-05T13:48:41.191Z,102054.00
2022-12-05T14:03:53.478Z,102053.66
2022-12-05T14:19:24.184Z,102044.41
2022-12-05T14:34:35.364Z,102033.00
2022-12-05T14:49:53.962Z,102033.50
2022-12-05T15:05:03.956Z,102038.28
2022-12-05T15:20:15.515Z,102048.72
2022-12-05T15:35:18.263Z,102053.41
2022-12-05T15:50:47.720Z,102060.38
2022-12-05T16:06:17.639Z,102044.50
2022-12-05T16:21:41.284Z,102045.25
2022-12-05T16:36:47.845Z,102033.84
2022-12-05T16:52:09.217Z,102035.94
2022-12-05T17:07:11.232Z,102020.88
2022-12-05T17:22:15.555Z,102040.31
2022-12-05T17:37:25.957Z,102037.56
2022-12-05T17:52:29.149Z,102030.88
2022-12-05T18:07:31.342Z,102018.69
2022-12-05T18:22:33.409Z,102005.09
2022-12-05T18:37:39.258Z,101998.44
2022-12-05T18:52:41.072Z,102013.84
2022-12-05T19:07:43.086Z,101997.09
2022-12-05T19:22:45.040Z,102003.91
2022-12-05T19:37:46.875Z,102000.47
2022-12-05T19:52:48.712Z,101996.53
2022-12-05T20:07:52.854Z,101981.84
2022-12-05T20:22:54.750Z,101963.88
2022-12-05T20:37:56.756Z,101960.59
2022-12-05T20:52:58.586Z,101972.84
2022-12-05T21:08:02.100Z,101950.78
2022-12-05T21:23:04.346Z,101958.38
2022-12-05T21:38:06.375Z,101959.50
2022-12-05T21:53:08.148Z,101942.28
2022-12-05T22:08:11.242Z,101914.59
2022-12-05T22:23:16.808Z,101910.22
2022-12-05T22:38:19.170Z,101895.78
2022-12-05T22:53:23.265Z,101880.09
2022-12-05T23:08:25.273Z,101878.22
2022-12-05T23:23:27.057Z,101873.81
2022-12-05T23:38:29.355Z,101875.72
2022-12-05T23:53:33.952Z,101846.13
